Time;durP1;ratioP1;P1;durP2;ratioP2;P2;SDS_P1;SDS_P2;PMS_P1;PMS_P2;Temp;Humidity;BMP_temperature;BMP_pressure;BME280_temperature;BME280_humidity;BME280_pressure;Samples;Min_cycle;Max_cycle;Signal;HPM_P1;HPM_P2
2021/06/29 00:01:08;;;;;;;139.50;66.17;;;18.20;99.90;;;;;;5053886;28;20192;-66
2021/06/29 00:03:37;;;;;;;154.97;68.63;;;18.10;99.90;;;;;;5043093;28;20204;-66
2021/06/29 00:06:07;;;;;;;155.80;69.97;;;18.10;99.90;;;;;;5042180;28;20207;-67
2021/06/29 00:08:36;;;;;;;166.93;74.70;;;18.10;99.90;;;;;;5057486;28;20307;-66
2021/06/29 00:11:23;;;;;;;175.80;73.97;;;18.10;99.90;;;;;;5056345;28;20223;-66
2021/06/29 00:13:53;;;;;;;169.57;73.83;;;18.10;99.90;;;;;;5053774;28;20196;-65
2021/06/29 00:16:21;;;;;;;167.47;72.00;;;18.10;99.90;;;;;;5055962;28;20277;-66
2021/06/29 00:18:50;;;;;;;173.27;73.83;;;18.10;99.90;;;;;;5059174;28;20200;-66
2021/06/29 00:21:20;;;;;;;195.13;80.20;;;18.10;99.90;;;;;;5061301;28;20201;-66
2021/06/29 00:23:49;;;;;;;190.83;80.40;;;18.10;99.90;;;;;;5056131;28;20782;-66
2021/06/29 00:26:17;;;;;;;201.23;81.67;;;18.10;99.90;;;;;;5059656;28;20188;-66
2021/06/29 00:28:47;;;;;;;204.40;81.67;;;18.10;99.90;;;;;;5065032;28;20219;-66
2021/06/29 00:31:16;;;;;;;205.33;82.37;;;18.10;99.90;;;;;;5066744;28;20776;-66
2021/06/29 00:33:45;;;;;;;201.70;80.13;;;18.10;99.90;;;;;;5062192;28;20745;-66
2021/06/29 00:36:15;;;;;;;214.43;86.83;;;18.10;99.90;;;;;;5062521;28;20220;-65
2021/06/29 00:38:45;;;;;;;219.77;88.40;;;18.00;99.90;;;;;;5058220;28;20273;-65
2021/06/29 00:41:14;;;;;;;223.33;87.67;;;18.00;99.90;;;;;;5060064;28;20279;-66
2021/06/29 00:43:48;;;;;;;211.27;84.47;;;18.00;99.90;;;;;;5062751;28;20188;-67
2021/06/29 00:46:18;;;;;;;221.07;83.27;;;18.00;99.90;;;;;;5066402;28;20827;-66
2021/06/29 00:48:47;;;;;;;223.67;84.67;;;18.00;99.90;;;;;;5060620;28;20204;-67
2021/06/29 00:51:17;;;;;;;228.57;87.23;;;18.00;99.90;;;;;;5059163;28;20234;-66
2021/06/29 00:53:48;;;;;;;225.00;85.27;;;18.00;99.90;;;;;;5061997;28;20642;-66
2021/06/29 00:56:19;;;;;;;230.07;85.87;;;18.00;99.90;;;;;;5064964;28;20188;-66
2021/06/29 00:58:49;;;;;;;221.60;80.07;;;18.00;99.90;;;;;;5067675;28;20218;-65
2021/06/29 01:01:18;;;;;;;213.30;81.53;;;18.00;99.90;;;;;;5044142;28;20200;-66
2021/06/29 01:03:46;;;;;;;211.63;80.80;;;18.00;99.90;;;;;;5062988;28;20359;-66
2021/06/29 01:06:17;;;;;;;208.70;81.73;;;18.00;99.90;;;;;;5064510;28;20287;-65
2021/06/29 01:08:49;;;;;;;205.73;77.87;;;18.00;99.90;;;;;;5063261;28;20281;-66
2021/06/29 01:11:18;;;;;;;214.03;80.07;;;18.00;99.90;;;;;;5060598;28;20273;-65
2021/06/29 01:13:47;;;;;;;207.73;75.47;;;18.00;99.90;;;;;;5065245;28;20196;-66
2021/06/29 01:16:17;;;;;;;223.90;78.53;;;18.00;99.90;;;;;;5062859;28;20195;-65
2021/06/29 01:18:46;;;;;;;204.00;79.33;;;18.00;99.90;;;;;;5065468;28;20196;-66
2021/06/29 01:21:20;;;;;;;219.40;80.40;;;18.00;99.90;;;;;;5066762;28;20192;-66
2021/06/29 01:24:01;;;;;;;192.47;72.87;;;18.00;99.90;;;;;;5063123;28;20196;-66
2021/06/29 01:26:31;;;;;;;210.97;78.47;;;18.00;99.90;;;;;;5057831;28;20192;-66
2021/06/29 01:29:02;;;;;;;213.83;74.87;;;18.00;99.90;;;;;;5067914;28;20228;-66
2021/06/29 01:31:31;;;;;;;207.17;74.40;;;18.00;99.90;;;;;;5060563;28;20207;-65
2021/06/29 01:34:00;;;;;;;218.33;79.03;;;18.00;99.90;;;;;;5059052;28;20200;-66
2021/06/29 01:36:38;;;;;;;224.67;76.43;;;18.00;99.90;;;;;;5059750;28;20212;-65
2021/06/29 01:39:12;;;;;;;220.33;76.63;;;18.00;99.90;;;;;;5062231;28;20204;-66
2021/06/29 01:41:41;;;;;;;210.30;74.57;;;18.00;99.90;;;;;;5063656;28;20282;-66
2021/06/29 01:44:12;;;;;;;223.20;76.87;;;18.00;99.90;;;;;;5067618;28;20563;-66
2021/06/29 01:46:42;;;;;;;231.47;79.00;;;17.90;99.90;;;;;;5063516;28;20189;-66
2021/06/29 01:49:12;;;;;;;232.33;78.47;;;17.90;99.90;;;;;;5064119;28;20227;-65
2021/06/29 01:51:41;;;;;;;220.93;76.60;;;17.90;99.90;;;;;;5062301;28;20223;-65
2021/06/29 01:54:10;;;;;;;245.10;77.63;;;17.90;99.90;;;;;;5059174;28;20219;-66
2021/06/29 01:56:40;;;;;;;233.23;80.23;;;17.90;99.90;;;;;;5063263;28;20226;-66
2021/06/29 01:59:11;;;;;;;222.03;73.57;;;17.90;99.90;;;;;;5076223;28;20570;-66
2021/06/29 02:01:40;;;;;;;224.37;74.63;;;17.90;99.90;;;;;;5057981;28;20279;-66
2021/06/29 02:04:10;;;;;;;219.53;74.10;;;17.90;99.90;;;;;;5059889;28;20192;-65
2021/06/29 02:06:41;;;;;;;221.53;74.93;;;17.90;99.90;;;;;;5057157;28;20226;-66
2021/06/29 02:09:10;;;;;;;212.97;69.47;;;17.90;99.90;;;;;;5062983;28;20223;-66
2021/06/29 02:11:40;;;;;;;223.90;72.20;;;17.80;99.90;;;;;;5061056;28;20194;-65
2021/06/29 02:14:10;;;;;;;202.13;67.67;;;17.80;99.90;;;;;;5063248;28;20196;-67
2021/06/29 02:16:39;;;;;;;227.80;73.07;;;17.80;99.90;;;;;;5063999;28;20198;-65
2021/06/29 02:19:09;;;;;;;219.67;68.60;;;17.80;99.90;;;;;;5060739;28;20206;-66
2021/06/29 02:21:38;;;;;;;221.17;70.43;;;17.80;99.90;;;;;;5063380;28;20200;-65
2021/06/29 02:24:09;;;;;;;215.77;69.83;;;17.70;99.90;;;;;;5062221;28;20223;-66
2021/06/29 02:26:37;;;;;;;231.93;72.07;;;17.70;99.90;;;;;;5062685;28;20192;-66
2021/06/29 02:29:07;;;;;;;189.90;64.03;;;17.70;99.90;;;;;;5057087;28;20273;-65
2021/06/29 02:31:37;;;;;;;202.63;64.40;;;17.70;99.90;;;;;;5063463;28;20613;-65
2021/06/29 02:34:06;;;;;;;195.17;63.60;;;17.70;99.90;;;;;;5064052;28;20192;-66
2021/06/29 02:36:34;;;;;;;196.13;64.63;;;17.60;99.90;;;;;;5056243;28;20188;-64
2021/06/29 02:39:05;;;;;;;213.27;70.33;;;17.60;99.90;;;;;;5062503;28;20270;-66
2021/06/29 02:41:39;;;;;;;194.93;63.83;;;17.60;99.90;;;;;;5049892;28;20207;-65
2021/06/29 02:44:09;;;;;;;199.40;65.77;;;17.60;99.90;;;;;;5062381;28;20279;-66
2021/06/29 02:46:37;;;;;;;211.60;67.13;;;17.60;99.90;;;;;;5064607;28;20205;-65
2021/06/29 02:49:06;;;;;;;224.50;73.50;;;17.60;99.90;;;;;;5063964;28;20228;-65
2021/06/29 02:51:36;;;;;;;223.20;72.23;;;17.50;99.90;;;;;;5044425;28;20229;-66
2021/06/29 02:54:05;;;;;;;235.87;74.90;;;17.50;99.90;;;;;;5061175;28;20962;-65
2021/06/29 02:56:39;;;;;;;203.23;64.27;;;17.50;99.90;;;;;;5043399;28;20277;-66
2021/06/29 02:59:14;;;;;;;179.43;59.60;;;17.50;99.90;;;;;;5062809;28;20598;-65
2021/06/29 03:01:46;;;;;;;155.03;54.57;;;17.40;99.90;;;;;;5061375;28;22102;-66
2021/06/29 03:04:20;;;;;;;102.43;38.13;;;17.40;99.90;;;;;;5064767;28;20257;-66
2021/06/29 03:06:50;;;;;;;79.80;32.47;;;17.30;99.90;;;;;;5064012;28;20711;-66
2021/06/29 03:09:19;;;;;;;79.63;31.60;;;17.20;99.90;;;;;;5062197;28;20246;-66
2021/06/29 03:11:50;;;;;;;72.73;30.03;;;17.20;99.90;;;;;;5062024;28;20279;-66
2021/06/29 03:14:20;;;;;;;57.50;22.27;;;17.10;99.90;;;;;;5064627;28;20196;-66
2021/06/29 03:16:48;;;;;;;53.77;22.67;;;17.10;99.90;;;;;;5064169;28;20202;-66
2021/06/29 03:19:17;;;;;;;55.83;23.87;;;17.00;99.90;;;;;;5062997;28;20775;-66
2021/06/29 03:21:46;;;;;;;55.90;24.00;;;17.00;99.90;;;;;;5063197;28;20198;-66
2021/06/29 03:24:14;;;;;;;48.73;21.77;;;17.00;99.90;;;;;;5055559;28;20220;-66
2021/06/29 03:26:43;;;;;;;37.53;17.87;;;16.90;99.90;;;;;;5063231;28;20200;-66
2021/06/29 03:29:12;;;;;;;34.57;16.30;;;16.90;99.90;;;;;;5062511;28;20246;-66
2021/06/29 03:31:42;;;;;;;27.87;14.60;;;16.80;99.90;;;;;;5059582;28;20275;-66
2021/06/29 03:34:11;;;;;;;35.77;16.43;;;16.80;99.90;;;;;;5062455;28;20253;-66
2021/06/29 03:36:39;;;;;;;33.33;16.53;;;16.80;99.90;;;;;;5062600;28;20193;-66
2021/06/29 03:39:08;;;;;;;30.70;15.33;;;16.70;99.90;;;;;;5062340;28;20266;-66
2021/06/29 03:41:37;;;;;;;28.53;13.43;;;16.60;99.90;;;;;;5061743;28;20274;-66
2021/06/29 03:44:06;;;;;;;24.40;11.90;;;16.60;99.90;;;;;;5060885;28;20604;-66
2021/06/29 03:46:34;;;;;;;23.50;11.57;;;16.50;99.90;;;;;;5064878;28;20234;-66
2021/06/29 03:49:04;;;;;;;32.70;14.30;;;16.50;99.90;;;;;;5060440;28;20741;-66
2021/06/29 03:51:33;;;;;;;29.67;14.17;;;16.50;99.90;;;;;;5060632;28;20253;-66
2021/06/29 03:54:02;;;;;;;26.90;13.67;;;16.50;99.90;;;;;;5057592;28;20792;-66
2021/06/29 03:56:31;;;;;;;24.23;12.37;;;16.50;99.90;;;;;;5063589;28;20664;-66
2021/06/29 03:59:03;;;;;;;23.60;11.37;;;16.50;99.90;;;;;;5061742;28;20195;-66
2021/06/29 04:01:33;;;;;;;15.47;9.10;;;16.50;99.90;;;;;;5060429;28;20188;-65
2021/06/29 04:04:02;;;;;;;14.10;8.33;;;16.50;99.90;;;;;;5067399;28;20249;-66
2021/06/29 04:06:32;;;;;;;11.33;6.97;;;16.50;99.90;;;;;;5066225;28;20201;-66
2021/06/29 04:09:02;;;;;;;13.70;7.00;;;16.50;99.90;;;;;;5062202;28;20200;-66
2021/06/29 04:11:31;;;;;;;11.27;6.87;;;16.50;99.90;;;;;;5065101;28;20213;-66
2021/06/29 04:13:59;;;;;;;10.33;6.27;;;16.50;99.90;;;;;;5059006;28;20289;-66
2021/06/29 04:16:28;;;;;;;9.67;6.93;;;16.50;99.90;;;;;;5066178;28;20197;-66
2021/06/29 04:18:56;;;;;;;10.50;7.17;;;16.60;99.90;;;;;;5061019;28;20379;-66
2021/06/29 04:21:25;;;;;;;11.07;6.97;;;16.60;99.90;;;;;;5063883;28;20234;-66
2021/06/29 04:23:55;;;;;;;8.40;7.10;;;16.70;99.90;;;;;;5057960;28;20757;-66
2021/06/29 04:26:23;;;;;;;10.70;7.80;;;16.70;99.90;;;;;;5057234;28;20590;-66
2021/06/29 04:28:52;;;;;;;11.23;7.13;;;16.80;99.90;;;;;;5066375;28;20260;-65
2021/06/29 04:31:21;;;;;;;6.53;5.63;;;16.80;99.90;;;;;;5066076;28;20710;-66
2021/06/29 04:33:49;;;;;;;6.90;5.00;;;16.80;99.90;;;;;;5064005;28;20218;-66
2021/06/29 04:36:17;;;;;;;8.57;4.60;;;16.80;99.90;;;;;;5068492;28;20289;-65
2021/06/29 04:38:46;;;;;;;4.37;4.00;;;16.80;99.90;;;;;;5063502;28;20257;-65
2021/06/29 04:41:15;;;;;;;4.57;4.17;;;16.80;99.90;;;;;;5060044;28;20290;-65
2021/06/29 04:43:45;;;;;;;7.10;3.73;;;16.80;99.90;;;;;;5063479;28;20198;-66
2021/06/29 04:46:14;;;;;;;4.80;3.30;;;16.80;99.90;;;;;;5062731;28;20351;-66
2021/06/29 04:48:43;;;;;;;6.53;2.70;;;16.70;99.90;;;;;;5060878;28;20196;-66
2021/06/29 04:51:11;;;;;;;4.53;2.90;;;16.70;99.90;;;;;;5060935;28;20312;-66
2021/06/29 04:53:40;;;;;;;3.70;2.83;;;16.80;99.90;;;;;;5068755;28;20267;-66
2021/06/29 04:56:17;;;;;;;13.50;3.30;;;16.80;99.90;;;;;;5065388;28;20192;-66
2021/06/29 04:58:51;;;;;;;4.07;2.47;;;16.70;99.90;;;;;;5064359;28;20191;-66
2021/06/29 05:01:19;;;;;;;7.53;2.50;;;16.70;99.90;;;;;;5061761;28;20276;-66
2021/06/29 05:03:48;;;;;;;3.50;2.40;;;16.80;99.90;;;;;;5062679;28;20193;-66
2021/06/29 05:06:17;;;;;;;2.43;2.33;;;16.80;99.90;;;;;;5063070;28;20695;-66
2021/06/29 05:08:46;;;;;;;4.53;2.70;;;16.80;99.90;;;;;;5063630;28;20197;-66
2021/06/29 05:11:15;;;;;;;3.20;2.87;;;16.80;99.90;;;;;;5060149;28;20689;-66
2021/06/29 05:13:44;;;;;;;3.70;2.77;;;16.80;99.90;;;;;;5064227;28;20193;-65
2021/06/29 05:16:13;;;;;;;4.10;2.70;;;16.80;99.90;;;;;;5060537;28;20290;-65
2021/06/29 05:18:42;;;;;;;4.00;3.20;;;16.80;99.90;;;;;;5059322;28;20224;-66
2021/06/29 05:21:10;;;;;;;3.17;3.00;;;16.80;99.90;;;;;;5058189;28;20204;-66
2021/06/29 05:23:39;;;;;;;3.47;2.80;;;16.80;99.90;;;;;;5056813;28;20239;-65
2021/06/29 05:26:10;;;;;;;3.60;3.00;;;16.90;99.90;;;;;;5056551;28;20752;-65
2021/06/29 05:28:38;;;;;;;4.20;3.10;;;16.90;99.90;;;;;;5065683;28;20228;-66
2021/06/29 05:31:08;;;;;;;3.80;3.23;;;16.90;99.90;;;;;;5066567;28;20843;-66
2021/06/29 05:33:37;;;;;;;9.00;3.70;;;16.90;99.90;;;;;;5066023;28;20187;-66
2021/06/29 05:36:06;;;;;;;3.73;2.93;;;17.00;99.90;;;;;;5068050;28;20276;-66
2021/06/29 05:38:35;;;;;;;7.07;3.40;;;17.00;99.90;;;;;;5067103;28;20206;-66
2021/06/29 05:41:04;;;;;;;9.80;4.50;;;17.10;99.90;;;;;;5064739;28;20228;-66
2021/06/29 05:43:32;;;;;;;10.43;5.00;;;17.10;99.90;;;;;;5063187;28;20192;-66
2021/06/29 05:46:01;;;;;;;8.83;5.20;;;17.10;99.90;;;;;;5066733;28;20293;-66
2021/06/29 05:48:31;;;;;;;13.23;6.50;;;17.20;99.90;;;;;;5061040;28;20185;-66
2021/06/29 05:51:02;;;;;;;14.33;7.20;;;17.20;99.90;;;;;;5058963;28;20215;-66
2021/06/29 05:53:31;;;;;;;13.10;6.53;;;17.20;99.90;;;;;;5062161;28;20709;-66
2021/06/29 05:56:00;;;;;;;12.73;7.20;;;17.30;99.90;;;;;;5064664;28;20287;-66
2021/06/29 05:58:29;;;;;;;20.33;8.30;;;17.30;99.90;;;;;;5054506;28;20234;-66
2021/06/29 06:00:57;;;;;;;16.53;7.67;;;17.40;99.90;;;;;;5061599;28;20223;-66
2021/06/29 06:03:25;;;;;;;13.30;7.20;;;17.40;99.90;;;;;;5066870;28;20654;-66
2021/06/29 06:05:54;;;;;;;14.23;7.30;;;17.40;99.90;;;;;;5061203;28;20206;-66
2021/06/29 06:08:24;;;;;;;13.33;7.20;;;17.50;99.90;;;;;;5052502;28;20206;-66
2021/06/29 06:10:53;;;;;;;13.67;7.50;;;17.50;99.90;;;;;;5057170;28;20225;-66
2021/06/29 06:13:22;;;;;;;16.13;8.20;;;17.50;99.90;;;;;;5065706;28;20196;-65
2021/06/29 06:15:52;;;;;;;16.43;8.03;;;17.50;99.90;;;;;;5061478;28;20194;-66
2021/06/29 06:18:21;;;;;;;33.70;8.30;;;17.50;99.90;;;;;;5059818;28;20195;-66
2021/06/29 06:20:51;;;;;;;12.03;7.23;;;17.60;99.90;;;;;;5069182;28;20211;-65
2021/06/29 06:23:20;;;;;;;16.63;8.00;;;17.70;99.90;;;;;;5059630;28;20659;-66
2021/06/29 06:25:50;;;;;;;21.70;9.23;;;17.70;99.90;;;;;;5055454;28;20231;-66
2021/06/29 06:28:18;;;;;;;18.87;8.87;;;17.60;99.90;;;;;;5061545;28;20308;-65
2021/06/29 06:30:47;;;;;;;13.47;8.70;;;17.70;99.90;;;;;;5059631;28;20278;-65
2021/06/29 06:33:15;;;;;;;19.37;9.17;;;17.70;99.90;;;;;;5064074;28;20720;-67
2021/06/29 06:36:00;;;;;;;17.67;9.63;;;17.70;99.90;;;;;;5066589;28;20362;-67
2021/06/29 06:38:28;;;;;;;21.13;9.77;;;17.80;99.90;;;;;;5066640;28;20192;-66
2021/06/29 06:40:58;;;;;;;20.67;10.03;;;17.70;99.90;;;;;;5061701;28;20220;-66
2021/06/29 06:43:26;;;;;;;22.00;9.83;;;17.70;99.90;;;;;;5056595;28;20713;-66
2021/06/29 06:45:55;;;;;;;19.93;9.87;;;17.80;99.90;;;;;;5053726;28;20261;-66
2021/06/29 06:48:24;;;;;;;16.57;9.93;;;17.90;99.90;;;;;;5060922;28;20215;-66
2021/06/29 06:50:52;;;;;;;22.77;9.50;;;17.80;99.90;;;;;;5058741;28;20199;-66
2021/06/29 06:53:21;;;;;;;14.93;9.03;;;17.90;99.90;;;;;;5067239;28;20208;-66
2021/06/29 06:55:49;;;;;;;15.23;9.90;;;17.90;99.90;;;;;;5059145;28;20292;-66
2021/06/29 06:58:18;;;;;;;19.60;9.97;;;18.00;99.90;;;;;;5063591;28;20658;-67
2021/06/29 07:00:47;;;;;;;15.50;9.30;;;18.00;99.90;;;;;;5062375;28;20238;-63
2021/06/29 07:03:22;;;;;;;23.93;9.07;;;18.00;99.90;;;;;;5063321;28;20184;-67
2021/06/29 07:05:51;;;;;;;14.97;9.47;;;18.10;99.90;;;;;;5064896;28;20188;-66
2021/06/29 07:08:19;;;;;;;19.00;9.40;;;18.10;99.90;;;;;;5067146;28;20678;-67
2021/06/29 07:10:48;;;;;;;16.67;9.47;;;18.10;99.90;;;;;;5064891;28;20516;-65
2021/06/29 07:13:18;;;;;;;18.33;10.23;;;18.00;99.90;;;;;;5059057;28;20207;-67
2021/06/29 07:15:47;;;;;;;15.27;9.50;;;17.90;99.90;;;;;;5065373;28;20184;-66
2021/06/29 07:18:16;;;;;;;20.27;9.20;;;17.90;99.90;;;;;;5063804;28;20180;-67
2021/06/29 07:20:46;;;;;;;20.90;9.47;;;17.90;99.90;;;;;;5064580;28;20570;-66
2021/06/29 07:23:15;;;;;;;17.87;10.20;;;17.90;99.90;;;;;;5065873;28;20214;-66
2021/06/29 07:25:43;;;;;;;19.20;10.27;;;17.90;99.90;;;;;;5065319;28;20212;-66
2021/06/29 07:28:12;;;;;;;21.43;10.93;;;17.90;99.90;;;;;;5059156;28;20208;-66
2021/06/29 07:30:42;;;;;;;20.97;9.77;;;17.80;99.90;;;;;;5064293;28;20283;-66
2021/06/29 07:33:10;;;;;;;21.63;10.03;;;17.80;99.90;;;;;;5062429;28;20215;-66
2021/06/29 07:35:39;;;;;;;22.67;11.07;;;17.70;99.90;;;;;;5063871;28;20451;-66
2021/06/29 07:38:08;;;;;;;21.63;11.97;;;17.80;99.90;;;;;;5065498;28;20271;-67
2021/06/29 07:40:36;;;;;;;30.60;11.90;;;17.80;99.90;;;;;;5061588;28;20652;-66
2021/06/29 07:43:05;;;;;;;28.80;12.33;;;17.80;99.90;;;;;;5061801;28;20192;-66
2021/06/29 07:45:34;;;;;;;26.53;12.30;;;17.80;99.90;;;;;;5065061;28;20273;-66
2021/06/29 07:48:07;;;;;;;27.27;13.27;;;17.90;99.90;;;;;;5064942;28;20259;-66
2021/06/29 07:50:36;;;;;;;28.27;13.60;;;17.90;99.90;;;;;;5064589;28;20200;-67
2021/06/29 07:53:05;;;;;;;30.97;13.80;;;17.90;99.90;;;;;;5064169;28;20686;-67
2021/06/29 07:55:33;;;;;;;28.50;12.60;;;17.90;99.90;;;;;;5063043;28;20574;-66
2021/06/29 07:58:04;;;;;;;28.47;12.77;;;18.00;99.90;;;;;;5055023;28;20430;-66
2021/06/29 08:00:35;;;;;;;27.10;13.40;;;18.10;99.90;;;;;;5059087;28;20275;-66
2021/06/29 08:03:05;;;;;;;26.97;13.50;;;18.30;99.90;;;;;;5065567;28;20220;-67
2021/06/29 08:05:34;;;;;;;30.27;13.47;;;18.60;99.90;;;;;;5063437;28;20192;-66
2021/06/29 08:08:05;;;;;;;29.50;13.30;;;18.80;99.90;;;;;;5057450;28;20663;-66
2021/06/29 08:10:34;;;;;;;28.00;14.27;;;18.90;99.90;;;;;;5060948;28;20273;-66
2021/06/29 08:13:02;;;;;;;28.30;14.77;;;19.00;99.90;;;;;;5060420;28;20215;-67
2021/06/29 08:15:32;;;;;;;28.83;14.17;;;19.00;99.90;;;;;;5057602;28;20196;-66
2021/06/29 08:18:01;;;;;;;22.77;12.10;;;19.00;99.90;;;;;;5064630;28;20654;-66
2021/06/29 08:20:30;;;;;;;22.93;11.67;;;19.10;99.90;;;;;;5065344;28;20218;-67
2021/06/29 08:23:01;;;;;;;20.03;12.27;;;19.50;99.90;;;;;;5062317;28;20664;-66
2021/06/29 08:25:30;;;;;;;19.97;11.40;;;19.90;99.90;;;;;;5062469;28;20199;-67
2021/06/29 08:27:59;;;;;;;14.40;10.27;;;20.60;99.90;;;;;;5063982;28;20370;-66
2021/06/29 08:30:27;;;;;;;14.83;9.67;;;21.70;99.90;;;;;;5065528;28;20712;-67
2021/06/29 08:32:56;;;;;;;14.90;10.20;;;22.40;99.90;;;;;;5061350;28;20303;-66
2021/06/29 08:35:24;;;;;;;14.47;10.53;;;22.50;99.90;;;;;;5062142;28;20275;-67
2021/06/29 08:37:54;;;;;;;19.57;11.23;;;22.30;99.90;;;;;;5065796;28;20201;-65
2021/06/29 08:40:23;;;;;;;16.40;10.43;;;22.00;99.90;;;;;;5065665;28;20274;-67
2021/06/29 08:42:59;;;;;;;13.77;9.93;;;21.60;99.90;;;;;;5063252;28;20189;-66
2021/06/29 08:45:28;;;;;;;15.13;10.20;;;21.20;99.90;;;;;;5064307;28;20666;-67
2021/06/29 08:47:57;;;;;;;15.40;11.17;;;21.00;99.90;;;;;;5059299;28;20251;-66
2021/06/29 08:50:29;;;;;;;16.30;10.70;;;21.00;99.90;;;;;;5066244;28;20497;-66
2021/06/29 08:53:00;;;;;;;15.60;10.97;;;21.70;99.90;;;;;;5065216;28;20232;-66
2021/06/29 08:55:33;;;;;;;20.20;10.40;;;22.50;99.90;;;;;;5067164;28;20593;-66
2021/06/29 08:58:02;;;;;;;17.80;10.43;;;22.70;99.90;;;;;;5067494;28;20210;-66
2021/06/29 09:00:31;;;;;;;13.07;9.97;;;22.70;99.90;;;;;;5066686;28;20618;-67
2021/06/29 09:02:59;;;;;;;15.33;10.13;;;22.60;99.90;;;;;;5065609;28;20234;-66
2021/06/29 09:05:29;;;;;;;11.97;9.70;;;22.50;99.90;;;;;;5064343;28;20190;-67
2021/06/29 09:08:05;;;;;;;13.70;9.23;;;22.60;99.90;;;;;;5068610;28;20288;-65
2021/06/29 09:10:35;;;;;;;16.60;9.30;;;23.40;99.90;;;;;;5065198;28;20662;-66
2021/06/29 09:13:05;;;;;;;16.47;9.60;;;24.50;99.90;;;;;;5065726;28;20687;-67
2021/06/29 09:15:43;;;;;;;9.50;8.00;;;25.60;99.90;;;;;;5063737;28;20289;-66
2021/06/29 09:18:17;;;;;;;13.45;8.27;;;26.20;99.90;;;;;;5067405;28;20191;-66
2021/06/29 09:20:52;;;;;;;14.80;9.90;;;26.60;99.90;;;;;;5066059;28;20713;-67
2021/06/29 09:23:25;;;;;;;16.23;9.40;;;26.30;99.90;;;;;;5065796;28;20716;-67
2021/06/29 09:25:57;;;;;;;14.80;10.55;;;25.60;99.90;;;;;;5067373;28;20190;-66
2021/06/29 09:28:27;;;;;;;13.10;10.35;;;25.20;99.90;;;;;;5066689;28;20286;-66
2021/06/29 09:30:57;;;;;;;14.63;10.38;;;25.20;99.90;;;;;;5048323;28;20199;-65
2021/06/29 09:33:27;;;;;;;13.48;9.35;;;24.70;99.90;;;;;;5063453;28;20241;-67
2021/06/29 09:35:57;;;;;;;15.40;10.17;;;24.30;99.90;;;;;;5065376;28;20196;-66
2021/06/29 09:38:28;;;;;;;17.20;11.23;;;24.10;99.90;;;;;;5067136;28;20189;-66
2021/06/29 09:41:01;;;;;;;20.03;11.93;;;23.50;99.90;;;;;;5066364;28;20518;-66
2021/06/29 09:43:31;;;;;;;19.20;11.97;;;23.00;99.90;;;;;;5066715;28;20715;-67
2021/06/29 09:46:02;;;;;;;21.40;12.53;;;22.60;99.90;;;;;;5067752;28;20203;-66
2021/06/29 09:48:34;;;;;;;19.10;12.17;;;22.60;99.90;;;;;;5066756;28;20222;-67
2021/06/29 09:51:10;;;;;;;16.07;11.07;;;22.60;99.90;;;;;;5065216;28;20287;-66
2021/06/29 09:53:41;;;;;;;17.87;12.50;;;22.90;99.90;;;;;;5065891;28;20296;-66
2021/06/29 09:56:12;;;;;;;18.13;11.93;;;23.50;99.90;;;;;;5065150;28;20595;-66
2021/06/29 09:58:45;;;;;;;14.20;11.13;;;24.60;99.90;;;;;;5066590;28;20295;-67
2021/06/29 10:01:16;;;;;;;16.93;11.57;;;25.10;99.90;;;;;;5062825;28;20220;-66
2021/06/29 10:03:46;;;;;;;17.00;12.23;;;24.90;99.90;;;;;;5064238;28;20263;-66
2021/06/29 10:06:17;;;;;;;17.17;12.00;;;24.50;99.90;;;;;;5060084;28;20227;-65
2021/06/29 10:08:48;;;;;;;19.30;11.93;;;24.20;99.90;;;;;;5058524;28;20188;-66
2021/06/29 10:11:22;;;;;;;17.10;11.03;;;24.20;99.90;;;;;;5065044;28;20279;-66
2021/06/29 10:13:58;;;;;;;20.03;12.30;;;24.20;99.90;;;;;;5059878;28;20791;-66
2021/06/29 10:16:30;;;;;;;16.70;11.90;;;24.10;99.90;;;;;;5062638;28;20716;-66
2021/06/29 10:22:00;;;;;;;13.32;9.90;;;25.70;99.90;;;;;;4998820;28;20372;-66
2021/06/29 10:24:32;;;;;;;15.88;10.30;;;27.00;99.90;;;;;;5049991;28;20215;-66
2021/06/29 10:27:03;;;;;;;16.55;10.23;;;26.90;99.90;;;;;;5062998;28;20209;-66
2021/06/29 10:29:35;;;;;;;17.80;11.30;;;27.00;99.90;;;;;;5067765;28;20237;-66
2021/06/29 10:32:07;;;;;;;15.18;10.88;;;27.40;99.90;;;;;;5065241;28;20340;-66
2021/06/29 10:34:36;;;;;;;14.63;11.38;;;27.30;99.90;;;;;;5068747;28;20216;-66
2021/06/29 10:37:06;;;;;;;20.17;11.88;;;26.70;99.90;;;;;;5063692;28;20190;-67
2021/06/29 10:39:37;;;;;;;15.40;10.95;;;26.10;99.90;;;;;;5067763;28;20200;-66
2021/06/29 10:42:08;;;;;;;23.25;12.68;;;25.90;99.90;;;;;;5061610;28;20288;-66
2021/06/29 10:44:39;;;;;;;19.73;13.18;;;25.90;99.90;;;;;;5065607;28;20622;-66
2021/06/29 10:47:21;;;;;;;18.08;12.07;;;25.90;99.90;;;;;;5063718;28;20742;-66
2021/06/29 10:49:50;;;;;;;19.40;12.27;;;25.60;99.90;;;;;;5065834;28;20253;-66
2021/06/29 10:52:39;;;;;;;23.65;13.82;;;26.10;99.90;;;;;;5064134;28;20282;-66
2021/06/29 10:55:23;;;;;;;19.95;13.52;;;27.00;99.90;;;;;;5060163;28;20222;-67
2021/06/29 10:57:53;;;;;;;18.58;12.65;;;27.60;99.90;;;;;;5063801;28;20193;-66
2021/06/29 11:00:32;;;;;;;21.48;13.65;;;28.20;99.90;;;;;;5066401;28;20363;-66
2021/06/29 11:03:11;;;;;;;20.67;14.05;;;28.40;99.90;;;;;;5064328;28;20247;-66
2021/06/29 11:05:44;;;;;;;20.77;14.30;;;27.90;99.90;;;;;;5059770;28;20201;-65
2021/06/29 11:08:15;;;;;;;23.75;15.20;;;27.10;99.90;;;;;;5065808;28;20199;-66
2021/06/29 11:10:48;;;;;;;25.55;15.95;;;26.60;99.90;;;;;;5067233;28;20192;-67
2021/06/29 11:13:18;;;;;;;26.90;17.02;;;26.40;99.90;;;;;;5066476;28;20264;-68
2021/06/29 11:15:52;;;;;;;23.02;15.65;;;26.10;99.90;;;;;;5066122;28;20222;-66
2021/06/29 11:18:23;;;;;;;29.23;16.67;;;25.50;99.90;;;;;;5065828;28;20231;-66
2021/06/29 11:20:52;;;;;;;29.93;17.40;;;25.10;99.90;;;;;;5062711;28;20618;-66
2021/06/29 11:23:30;;;;;;;21.17;14.40;;;24.90;99.90;;;;;;5065772;28;20257;-66
2021/06/29 11:26:03;;;;;;;25.23;16.33;;;24.80;99.90;;;;;;5064394;28;20559;-65
2021/06/29 11:29:00;;;;;;;22.97;15.10;;;25.00;99.90;;;;;;5063362;28;20719;-66
2021/06/29 11:31:31;;;;;;;21.47;14.80;;;25.10;99.90;;;;;;5058089;28;20612;-66
2021/06/29 11:34:03;;;;;;;22.37;14.20;;;25.20;99.90;;;;;;5063808;28;20223;-65
2021/06/29 11:36:44;;;;;;;24.17;15.83;;;25.20;99.90;;;;;;5063998;28;20548;-66
2021/06/29 11:39:34;;;;;;;24.40;16.63;;;25.10;99.90;;;;;;5062465;28;20454;-66
2021/06/29 11:42:08;;;;;;;21.77;14.47;;;25.20;99.90;;;;;;5062888;28;20559;-66
2021/06/29 11:44:39;;;;;;;20.43;14.30;;;25.70;99.90;;;;;;5066950;28;20600;-66
2021/06/29 11:47:13;;;;;;;23.10;15.00;;;26.10;99.90;;;;;;5059297;28;20258;-66
2021/06/29 11:49:45;;;;;;;27.80;15.33;;;26.00;99.90;;;;;;5063552;28;20239;-66
2021/06/29 11:52:27;;;;;;;24.10;17.07;;;25.80;99.90;;;;;;5063633;28;20217;-65
2021/06/29 11:54:58;;;;;;;28.03;17.97;;;25.40;99.90;;;;;;5064499;28;20272;-66
2021/06/29 11:57:30;;;;;;;30.97;20.30;;;25.50;99.90;;;;;;5063768;28;20272;-66
2021/06/29 12:00:00;;;;;;;32.13;20.67;;;25.50;99.90;;;;;;5058774;28;20666;-66
2021/06/29 12:02:30;;;;;;;35.70;22.53;;;25.40;99.90;;;;;;5061915;28;20245;-66
2021/06/29 12:05:05;;;;;;;35.17;22.40;;;25.20;99.90;;;;;;5063306;28;20239;-66
2021/06/29 12:07:39;;;;;;;33.23;20.53;;;25.00;99.90;;;;;;5066323;28;20195;-65
2021/06/29 12:10:13;;;;;;;31.30;20.33;;;25.10;99.90;;;;;;5060934;28;20196;-66
2021/06/29 12:12:45;;;;;;;31.33;20.73;;;25.00;99.90;;;;;;5061501;28;20658;-65
2021/06/29 12:15:16;;;;;;;34.83;21.93;;;24.90;99.90;;;;;;5061615;28;20540;-66
2021/06/29 12:17:48;;;;;;;32.63;21.97;;;24.80;99.90;;;;;;5054254;28;20741;-66
2021/06/29 12:20:19;;;;;;;38.57;20.70;;;24.90;99.90;;;;;;5062515;28;20269;-66
2021/06/29 12:22:49;;;;;;;32.73;22.07;;;25.30;99.90;;;;;;5066640;28;20192;-66
2021/06/29 12:25:24;;;;;;;37.67;22.00;;;25.60;99.90;;;;;;5069758;28;20217;-66
2021/06/29 12:27:56;;;;;;;31.87;22.00;;;25.70;99.90;;;;;;5068225;28;20188;-66
2021/06/29 12:30:37;;;;;;;31.07;20.57;;;25.80;99.90;;;;;;5061123;28;20193;-66
2021/06/29 12:33:21;;;;;;;37.13;21.83;;;26.00;99.90;;;;;;5069277;28;20212;-66
2021/06/29 12:35:52;;;;;;;32.97;21.33;;;25.70;99.90;;;;;;5068388;28;20478;-66
2021/06/29 12:38:23;;;;;;;36.03;21.43;;;25.20;99.90;;;;;;5067089;28;20516;-64
2021/06/29 12:40:54;;;;;;;38.80;22.37;;;25.00;99.90;;;;;;5066741;28;20193;-66
2021/06/29 12:43:30;;;;;;;38.73;23.10;;;24.80;99.90;;;;;;5067138;28;20192;-65
2021/06/29 12:46:14;;;;;;;40.33;22.33;;;24.90;99.90;;;;;;5069339;28;20282;-66
2021/06/29 12:48:56;;;;;;;41.07;22.57;;;24.80;99.90;;;;;;5070842;28;20242;-66